Hyundai No.107 — A8CT4 — position and weather

sailwx.info

Track history (hours):
 
Tides and Currents Weather Stations Pressure Air Temp Water Temp Dewpoint Dewpoint Depression Visibility Wind Speed Wind Dir Waves Ship Positions

Hyundai No.107

Last reported at 2015-Apr-19 22:27 UTC. Time now 2015-Apr-19 22:59 UTC.
Position N 48°21' W 123°21'.

Length 184 m; draft 8.2 m.

Type: Cargo ship. MMSI: 636011980.

Date/timePositionNaut miles runAvg speedWind from/ knotsBaromVisibWave heightAir tempDewpointWater temp
2015-Apr-19 22:27N 48°21' W 123°21'0 0.0
2015-Apr-19 21:30N 48°21' W 123°21'0 0.1
2015-Apr-19 20:33N 48°21' W 123°21'0 0.1
2015-Apr-19 19:33N 48°21' W 123°21'3 2.9
2015-Apr-19 18:33N 48°19' W 123°24'10 9.7
2015-Apr-19 17:32N 48°14' W 123°37'1111.6
2015-Apr-19 16:33N 48°14' W 123°54'1313.3
2015-Apr-19 15:32N 48°19' W 124°12'1313.4
2015-Apr-19 14:33N 48°24' W 124°30'1413.3
2015-Apr-19 13:32N 48°28' W 124°50'1515.3
2015-Apr-19 12:33N 48°29' W 125°12'1615.7
2015-Apr-19 11:33N 48°31' W 125°36'1615.9
2015-Apr-19 10:33N 48°35' W 125°59'1615.5
2015-Apr-19 09:33N 48°37' W 126°23'1515.4
2015-Apr-19 08:33N 48°36' W 126°46'1715.3
2015-Apr-19 07:28N 48°35' W 127°11'1415.4
2015-Apr-19 06:33N 48°35' W 127°32'1615.5
2015-Apr-19 05:32N 48°34' W 127°56'  
Track history (hours):
 
Tides and Currents Weather Stations Pressure Air Temp Water Temp Dewpoint Dewpoint Depression Visibility Wind Speed Wind Dir Waves Ship Positions

Hyundai No.107

Last reported at 2015-Apr-19 22:27 UTC. Time now 2015-Apr-19 22:59 UTC.
Position N 48°21' W 123°21'.

Length 184 m; draft 8.2 m.

Type: Cargo ship. MMSI: 636011980.

Date/timePositionNaut miles runAvg speedWind from/ knotsBaromVisibWave heightAir tempDewpointWater temp
2015-Apr-19 22:27N 48°21' W 123°21'0 0.0
2015-Apr-19 21:30N 48°21' W 123°21'0 0.1
2015-Apr-19 20:33N 48°21' W 123°21'0 0.1
2015-Apr-19 19:33N 48°21' W 123°21'3 2.9
2015-Apr-19 18:33N 48°19' W 123°24'10 9.7
2015-Apr-19 17:32N 48°14' W 123°37'1111.6
2015-Apr-19 16:33N 48°14' W 123°54'1313.3
2015-Apr-19 15:32N 48°19' W 124°12'1313.4
2015-Apr-19 14:33N 48°24' W 124°30'1413.3
2015-Apr-19 13:32N 48°28' W 124°50'1515.3
2015-Apr-19 12:33N 48°29' W 125°12'1615.7
2015-Apr-19 11:33N 48°31' W 125°36'1615.9
2015-Apr-19 10:33N 48°35' W 125°59'1615.5
2015-Apr-19 09:33N 48°37' W 126°23'1515.4
2015-Apr-19 08:33N 48°36' W 126°46'1715.3
2015-Apr-19 07:28N 48°35' W 127°11'1415.4
2015-Apr-19 06:33N 48°35' W 127°32'1615.5
2015-Apr-19 05:32N 48°34' W 127°56'  

Dump ship's entire track history